sensor_id;sensor_type;location;lat;lon;timestamp;temperature;humidity
1361;DHT22;674;45.552;-122.600;2023-03-11T00:00:57;9.10;1.00
1361;DHT22;674;45.552;-122.600;2023-03-11T00:03:26;9.30;1.00
1361;DHT22;674;45.552;-122.600;2023-03-11T00:05:56;9.20;1.00
1361;DHT22;674;45.552;-122.600;2023-03-11T00:08:27;9.10;1.00
1361;DHT22;674;45.552;-122.600;2023-03-11T00:10:58;9.00;1.00
1361;DHT22;674;45.552;-122.600;2023-03-11T00:13:28;9.00;1.00
1361;DHT22;674;45.552;-122.600;2023-03-11T00:15:57;9.20;1.00
1361;DHT22;674;45.552;-122.600;2023-03-11T00:18:27;9.20;1.00
1361;DHT22;674;45.552;-122.600;2023-03-11T00:20:58;8.90;1.00
1361;DHT22;674;45.552;-122.600;2023-03-11T00:23:28;9.00;1.00
1361;DHT22;674;45.552;-122.600;2023-03-11T00:25:56;9.20;1.00
1361;DHT22;674;45.552;-122.600;2023-03-11T00:28:27;9.00;1.00
1361;DHT22;674;45.552;-122.600;2023-03-11T00:30:55;9.20;1.00
1361;DHT22;674;45.552;-122.600;2023-03-11T00:33:24;8.90;1.00
1361;DHT22;674;45.552;-122.600;2023-03-11T00:35:52;9.00;1.00
1361;DHT22;674;45.552;-122.600;2023-03-11T00:38:21;8.90;1.00
1361;DHT22;674;45.552;-122.600;2023-03-11T00:40:49;8.80;1.00
1361;DHT22;674;45.552;-122.600;2023-03-11T00:43:18;8.90;1.00
1361;DHT22;674;45.552;-122.600;2023-03-11T00:45:47;8.50;1.00
1361;DHT22;674;45.552;-122.600;2023-03-11T00:48:15;8.70;1.00
1361;DHT22;674;45.552;-122.600;2023-03-11T00:50:44;8.30;1.00
1361;DHT22;674;45.552;-122.600;2023-03-11T00:53:12;8.60;1.00
1361;DHT22;674;45.552;-122.600;2023-03-11T00:55:40;8.50;1.00
1361;DHT22;674;45.552;-122.600;2023-03-11T00:58:10;8.30;1.00
1361;DHT22;674;45.552;-122.600;2023-03-11T01:00:39;8.20;1.00
1361;DHT22;674;45.552;-122.600;2023-03-11T01:03:07;8.30;1.00
1361;DHT22;674;45.552;-122.600;2023-03-11T01:05:36;8.20;1.00
1361;DHT22;674;45.552;-122.600;2023-03-11T01:08:05;8.10;1.00
1361;DHT22;674;45.552;-122.600;2023-03-11T01:10:35;8.00;1.00
1361;DHT22;674;45.552;-122.600;2023-03-11T01:13:04;8.00;1.00
1361;DHT22;674;45.552;-122.600;2023-03-11T01:15:35;7.90;1.00
1361;DHT22;674;45.552;-122.600;2023-03-11T01:18:05;7.90;1.00
1361;DHT22;674;45.552;-122.600;2023-03-11T01:20:35;7.60;1.00
1361;DHT22;674;45.552;-122.600;2023-03-11T01:23:05;7.70;1.00
1361;DHT22;674;45.552;-122.600;2023-03-11T01:25:34;7.50;1.00
1361;DHT22;674;45.552;-122.600;2023-03-11T01:28:03;7.80;1.00
1361;DHT22;674;45.552;-122.600;2023-03-11T01:30:33;7.70;1.00
1361;DHT22;674;45.552;-122.600;2023-03-11T01:33:03;7.90;1.00
1361;DHT22;674;45.552;-122.600;2023-03-11T01:35:33;8.00;1.00
1361;DHT22;674;45.552;-122.600;2023-03-11T01:38:02;7.60;1.00
1361;DHT22;674;45.552;-122.600;2023-03-11T01:40:33;7.50;1.00
1361;DHT22;674;45.552;-122.600;2023-03-11T01:43:33;7.40;3.50
1361;DHT22;674;45.552;-122.600;2023-03-11T01:48:23;7.50;13.00
1361;DHT22;674;45.552;-122.600;2023-03-11T01:50:52;7.40;19.90
1361;DHT22;674;45.552;-122.600;2023-03-11T01:53:21;7.40;24.40
1361;DHT22;674;45.552;-122.600;2023-03-11T01:55:51;7.50;26.80
1361;DHT22;674;45.552;-122.600;2023-03-11T01:58:29;7.60;23.70
1361;DHT22;674;45.552;-122.600;2023-03-11T02:00:59;7.40;23.40
1361;DHT22;674;45.552;-122.600;2023-03-11T02:03:39;7.30;26.90
1361;DHT22;674;45.552;-122.600;2023-03-11T02:06:14;7.40;31.60
1361;DHT22;674;45.552;-122.600;2023-03-11T02:08:43;7.40;32.60
1361;DHT22;674;45.552;-122.600;2023-03-11T02:11:20;7.50;33.80
1361;DHT22;674;45.552;-122.600;2023-03-11T02:13:49;7.50;24.50
1361;DHT22;674;45.552;-122.600;2023-03-11T02:16:18;7.50;25.70
1361;DHT22;674;45.552;-122.600;2023-03-11T02:18:47;7.50;29.90
1361;DHT22;674;45.552;-122.600;2023-03-11T02:21:27;7.40;30.70
1361;DHT22;674;45.552;-122.600;2023-03-11T02:26:57;7.50;25.70
1361;DHT22;674;45.552;-122.600;2023-03-11T02:29:28;7.40;25.00
1361;DHT22;674;45.552;-122.600;2023-03-11T02:31:58;7.30;14.20
1361;DHT22;674;45.552;-122.600;2023-03-11T02:34:30;7.50;12.90
1361;DHT22;674;45.552;-122.600;2023-03-11T02:37:00;7.60;7.10
1361;DHT22;674;45.552;-122.600;2023-03-11T02:39:33;7.60;10.50
1361;DHT22;674;45.552;-122.600;2023-03-11T02:44:46;7.20;4.50
1361;DHT22;674;45.552;-122.600;2023-03-11T02:47:17;7.10;7.20
1361;DHT22;674;45.552;-122.600;2023-03-11T02:49:46;7.10;7.40
1361;DHT22;674;45.552;-122.600;2023-03-11T02:52:16;7.00;7.60
1361;DHT22;674;45.552;-122.600;2023-03-11T02:54:44;7.00;9.10
1361;DHT22;674;45.552;-122.600;2023-03-11T02:57:13;7.20;13.70
1361;DHT22;674;45.552;-122.600;2023-03-11T02:59:41;7.10;10.40
1361;DHT22;674;45.552;-122.600;2023-03-11T03:02:10;6.90;11.90
1361;DHT22;674;45.552;-122.600;2023-03-11T03:04:38;6.90;12.30
1361;DHT22;674;45.552;-122.600;2023-03-11T03:07:07;6.80;11.70
1361;DHT22;674;45.552;-122.600;2023-03-11T03:09:36;6.90;12.50
1361;DHT22;674;45.552;-122.600;2023-03-11T03:12:05;7.00;8.40
1361;DHT22;674;45.552;-122.600;2023-03-11T03:14:33;6.80;11.70
1361;DHT22;674;45.552;-122.600;2023-03-11T03:17:02;6.70;11.60
1361;DHT22;674;45.552;-122.600;2023-03-11T03:19:30;6.60;11.60
1361;DHT22;674;45.552;-122.600;2023-03-11T03:21:59;6.90;15.80
1361;DHT22;674;45.552;-122.600;2023-03-11T03:24:27;6.60;17.10
1361;DHT22;674;45.552;-122.600;2023-03-11T03:26:56;6.60;18.40
1361;DHT22;674;45.552;-122.600;2023-03-11T03:29:24;6.60;15.50
1361;DHT22;674;45.552;-122.600;2023-03-11T03:31:53;6.50;9.90
1361;DHT22;674;45.552;-122.600;2023-03-11T03:34:21;6.60;6.50
1361;DHT22;674;45.552;-122.600;2023-03-11T03:36:50;6.70;6.60
1361;DHT22;674;45.552;-122.600;2023-03-11T03:39:18;6.80;8.10
1361;DHT22;674;45.552;-122.600;2023-03-11T03:41:47;6.80;3.80
1361;DHT22;674;45.552;-122.600;2023-03-11T03:44:15;6.80;1.00
1361;DHT22;674;45.552;-122.600;2023-03-11T03:46:44;6.80;3.10
1361;DHT22;674;45.552;-122.600;2023-03-11T03:49:13;6.50;3.90
1361;DHT22;674;45.552;-122.600;2023-03-11T03:51:41;6.60;2.10
1361;DHT22;674;45.552;-122.600;2023-03-11T03:54:10;6.60;2.70
1361;DHT22;674;45.552;-122.600;2023-03-11T03:56:38;6.60;2.20
1361;DHT22;674;45.552;-122.600;2023-03-11T03:59:06;6.60;1.80
1361;DHT22;674;45.552;-122.600;2023-03-11T04:01:35;6.80;3.00
1361;DHT22;674;45.552;-122.600;2023-03-11T04:04:03;6.80;1.00
1361;DHT22;674;45.552;-122.600;2023-03-11T04:06:32;6.80;1.00
1361;DHT22;674;45.552;-122.600;2023-03-11T04:09:00;6.90;1.00
1361;DHT22;674;45.552;-122.600;2023-03-11T04:11:31;6.70;1.00
1361;DHT22;674;45.552;-122.600;2023-03-11T04:14:00;6.70;1.00
1361;DHT22;674;45.552;-122.600;2023-03-11T04:16:29;6.90;1.00
1361;DHT22;674;45.552;-122.600;2023-03-11T04:18:58;6.90;1.00
1361;DHT22;674;45.552;-122.600;2023-03-11T04:21:26;6.90;1.00
1361;DHT22;674;45.552;-122.600;2023-03-11T04:23:55;6.90;1.00
1361;DHT22;674;45.552;-122.600;2023-03-11T04:26:23;6.90;1.00
1361;DHT22;674;45.552;-122.600;2023-03-11T04:28:52;7.00;1.00
1361;DHT22;674;45.552;-122.600;2023-03-11T04:31:20;7.20;1.00
1361;DHT22;674;45.552;-122.600;2023-03-11T04:33:49;7.20;1.00
1361;DHT22;674;45.552;-122.600;2023-03-11T04:36:18;7.20;1.00
1361;DHT22;674;45.552;-122.600;2023-03-11T04:38:46;7.10;1.00
1361;DHT22;674;45.552;-122.600;2023-03-11T04:41:15;7.10;1.00
1361;DHT22;674;45.552;-122.600;2023-03-11T04:43:44;6.70;1.00
1361;DHT22;674;45.552;-122.600;2023-03-11T04:46:12;7.00;1.00
1361;DHT22;674;45.552;-122.600;2023-03-11T04:48:41;7.20;1.00
1361;DHT22;674;45.552;-122.600;2023-03-11T04:51:10;7.20;1.00
1361;DHT22;674;45.552;-122.600;2023-03-11T04:53:39;7.10;1.00
1361;DHT22;674;45.552;-122.600;2023-03-11T04:56:07;6.90;1.00
1361;DHT22;674;45.552;-122.600;2023-03-11T04:58:36;6.90;1.00
1361;DHT22;674;45.552;-122.600;2023-03-11T05:01:05;6.70;1.00
1361;DHT22;674;45.552;-122.600;2023-03-11T05:03:33;6.90;1.00
1361;DHT22;674;45.552;-122.600;2023-03-11T05:06:02;6.80;1.00
1361;DHT22;674;45.552;-122.600;2023-03-11T05:08:30;7.00;1.00
1361;DHT22;674;45.552;-122.600;2023-03-11T05:10:59;7.20;1.00
1361;DHT22;674;45.552;-122.600;2023-03-11T05:13:28;7.20;1.00
1361;DHT22;674;45.552;-122.600;2023-03-11T05:15:57;7.10;1.00
1361;DHT22;674;45.552;-122.600;2023-03-11T05:18:25;7.00;1.00
1361;DHT22;674;45.552;-122.600;2023-03-11T05:20:54;7.20;1.00
1361;DHT22;674;45.552;-122.600;2023-03-11T05:23:23;7.00;1.00
1361;DHT22;674;45.552;-122.600;2023-03-11T05:25:51;7.20;1.00
1361;DHT22;674;45.552;-122.600;2023-03-11T05:28:20;6.90;1.00
1361;DHT22;674;45.552;-122.600;2023-03-11T05:30:48;6.80;1.00
1361;DHT22;674;45.552;-122.600;2023-03-11T05:33:20;6.90;1.00
1361;DHT22;674;45.552;-122.600;2023-03-11T05:35:48;6.50;1.00
1361;DHT22;674;45.552;-122.600;2023-03-11T05:38:18;6.40;1.00
1361;DHT22;674;45.552;-122.600;2023-03-11T05:40:47;6.50;1.00
1361;DHT22;674;45.552;-122.600;2023-03-11T05:43:15;6.30;1.00
1361;DHT22;674;45.552;-122.600;2023-03-11T05:45:44;6.30;1.00
1361;DHT22;674;45.552;-122.600;2023-03-11T05:48:12;6.20;1.00
1361;DHT22;674;45.552;-122.600;2023-03-11T05:50:41;6.20;1.00
1361;DHT22;674;45.552;-122.600;2023-03-11T05:53:09;6.20;1.80
1361;DHT22;674;45.552;-122.600;2023-03-11T05:55:38;6.20;4.80
1361;DHT22;674;45.552;-122.600;2023-03-11T05:58:06;6.20;10.10
1361;DHT22;674;45.552;-122.600;2023-03-11T06:00:34;6.50;12.30
1361;DHT22;674;45.552;-122.600;2023-03-11T06:03:03;6.60;14.90
1361;DHT22;674;45.552;-122.600;2023-03-11T06:05:32;6.50;15.00
1361;DHT22;674;45.552;-122.600;2023-03-11T06:08:00;6.30;18.20
1361;DHT22;674;45.552;-122.600;2023-03-11T06:10:29;6.30;21.40
1361;DHT22;674;45.552;-122.600;2023-03-11T06:12:57;6.40;22.40
1361;DHT22;674;45.552;-122.600;2023-03-11T06:15:25;6.40;17.70
1361;DHT22;674;45.552;-122.600;2023-03-11T06:17:54;6.60;21.80
1361;DHT22;674;45.552;-122.600;2023-03-11T06:20:23;6.40;19.90
1361;DHT22;674;45.552;-122.600;2023-03-11T06:22:52;6.60;16.00
1361;DHT22;674;45.552;-122.600;2023-03-11T06:25:20;6.50;17.20
1361;DHT22;674;45.552;-122.600;2023-03-11T06:27:52;6.60;16.10
1361;DHT22;674;45.552;-122.600;2023-03-11T06:30:20;6.50;12.30
1361;DHT22;674;45.552;-122.600;2023-03-11T06:32:49;6.90;14.00
1361;DHT22;674;45.552;-122.600;2023-03-11T06:35:18;6.80;13.30
1361;DHT22;674;45.552;-122.600;2023-03-11T06:37:46;6.90;14.10
1361;DHT22;674;45.552;-122.600;2023-03-11T06:40:15;6.60;8.80
1361;DHT22;674;45.552;-122.600;2023-03-11T06:42:45;6.40;13.70
1361;DHT22;674;45.552;-122.600;2023-03-11T06:45:17;6.50;16.00
1361;DHT22;674;45.552;-122.600;2023-03-11T06:47:47;6.40;16.70
1361;DHT22;674;45.552;-122.600;2023-03-11T06:50:15;6.40;24.50
1361;DHT22;674;45.552;-122.600;2023-03-11T06:52:44;6.50;24.80
1361;DHT22;674;45.552;-122.600;2023-03-11T06:55:13;6.40;22.80
1361;DHT22;674;45.552;-122.600;2023-03-11T06:57:41;6.60;28.40
1361;DHT22;674;45.552;-122.600;2023-03-11T07:00:12;6.40;23.20
1361;DHT22;674;45.552;-122.600;2023-03-11T07:02:41;6.30;27.70
1361;DHT22;674;45.552;-122.600;2023-03-11T07:05:09;6.30;25.20
1361;DHT22;674;45.552;-122.600;2023-03-11T07:07:39;6.20;28.80
1361;DHT22;674;45.552;-122.600;2023-03-11T07:10:08;6.50;26.80
1361;DHT22;674;45.552;-122.600;2023-03-11T07:12:37;6.40;27.70
1361;DHT22;674;45.552;-122.600;2023-03-11T07:15:06;6.40;28.20
1361;DHT22;674;45.552;-122.600;2023-03-11T07:17:34;6.50;33.40
1361;DHT22;674;45.552;-122.600;2023-03-11T07:20:03;6.50;29.60
1361;DHT22;674;45.552;-122.600;2023-03-11T07:22:32;6.70;26.10
1361;DHT22;674;45.552;-122.600;2023-03-11T07:25:00;6.50;24.00
1361;DHT22;674;45.552;-122.600;2023-03-11T07:27:29;6.50;20.30
1361;DHT22;674;45.552;-122.600;2023-03-11T07:29:59;6.50;27.60
1361;DHT22;674;45.552;-122.600;2023-03-11T07:32:27;6.40;30.00
1361;DHT22;674;45.552;-122.600;2023-03-11T07:34:56;6.50;26.30
1361;DHT22;674;45.552;-122.600;2023-03-11T07:37:25;6.80;22.80
1361;DHT22;674;45.552;-122.600;2023-03-11T07:39:54;6.50;18.70
1361;DHT22;674;45.552;-122.600;2023-03-11T07:42:22;6.30;19.10
1361;DHT22;674;45.552;-122.600;2023-03-11T07:44:50;6.60;18.30
1361;DHT22;674;45.552;-122.600;2023-03-11T07:47:20;6.50;18.40
1361;DHT22;674;45.552;-122.600;2023-03-11T07:49:48;6.60;18.20
1361;DHT22;674;45.552;-122.600;2023-03-11T07:52:17;6.30;14.30
1361;DHT22;674;45.552;-122.600;2023-03-11T07:54:45;6.20;23.40
1361;DHT22;674;45.552;-122.600;2023-03-11T07:57:14;6.30;22.20
1361;DHT22;674;45.552;-122.600;2023-03-11T07:59:44;6.30;21.60
1361;DHT22;674;45.552;-122.600;2023-03-11T08:02:12;6.50;20.20
1361;DHT22;674;45.552;-122.600;2023-03-11T08:04:41;6.50;23.50
1361;DHT22;674;45.552;-122.600;2023-03-11T08:07:09;6.20;24.90
1361;DHT22;674;45.552;-122.600;2023-03-11T08:09:38;6.50;27.50
1361;DHT22;674;45.552;-122.600;2023-03-11T08:12:07;6.50;26.60
1361;DHT22;674;45.552;-122.600;2023-03-11T08:14:35;6.30;33.80
1361;DHT22;674;45.552;-122.600;2023-03-11T08:17:04;6.00;39.90
1361;DHT22;674;45.552;-122.600;2023-03-11T08:19:33;6.30;37.50
1361;DHT22;674;45.552;-122.600;2023-03-11T08:22:02;6.60;37.70
1361;DHT22;674;45.552;-122.600;2023-03-11T08:24:32;6.30;35.50
1361;DHT22;674;45.552;-122.600;2023-03-11T08:27:00;6.20;35.90
1361;DHT22;674;45.552;-122.600;2023-03-11T08:29:29;6.20;37.50
1361;DHT22;674;45.552;-122.600;2023-03-11T08:31:57;6.30;39.30
1361;DHT22;674;45.552;-122.600;2023-03-11T08:34:26;6.20;34.50
1361;DHT22;674;45.552;-122.600;2023-03-11T08:36:55;6.20;30.60
1361;DHT22;674;45.552;-122.600;2023-03-11T08:39:23;6.10;36.00
1361;DHT22;674;45.552;-122.600;2023-03-11T08:41:52;6.20;39.10
1361;DHT22;674;45.552;-122.600;2023-03-11T08:44:20;6.40;40.50
1361;DHT22;674;45.552;-122.600;2023-03-11T08:46:49;6.40;39.70
1361;DHT22;674;45.552;-122.600;2023-03-11T08:49:18;6.50;35.60
1361;DHT22;674;45.552;-122.600;2023-03-11T08:51:46;6.60;27.20
1361;DHT22;674;45.552;-122.600;2023-03-11T08:54:15;6.50;26.40
1361;DHT22;674;45.552;-122.600;2023-03-11T08:56:43;6.40;30.60
1361;DHT22;674;45.552;-122.600;2023-03-11T08:59:13;6.50;30.60
1361;DHT22;674;45.552;-122.600;2023-03-11T09:01:41;6.40;30.00
1361;DHT22;674;45.552;-122.600;2023-03-11T09:04:10;6.30;24.10
1361;DHT22;674;45.552;-122.600;2023-03-11T09:06:43;6.50;26.70
1361;DHT22;674;45.552;-122.600;2023-03-11T09:09:12;6.60;33.50
1361;DHT22;674;45.552;-122.600;2023-03-11T09:11:40;6.30;30.50
1361;DHT22;674;45.552;-122.600;2023-03-11T09:14:09;6.00;30.70
1361;DHT22;674;45.552;-122.600;2023-03-11T09:16:37;6.30;27.80
1361;DHT22;674;45.552;-122.600;2023-03-11T09:19:06;6.50;32.90
1361;DHT22;674;45.552;-122.600;2023-03-11T09:21:35;6.10;32.30
1361;DHT22;674;45.552;-122.600;2023-03-11T09:24:05;6.40;29.40
1361;DHT22;674;45.552;-122.600;2023-03-11T09:26:34;6.30;28.70
1361;DHT22;674;45.552;-122.600;2023-03-11T09:29:03;6.10;35.70
1361;DHT22;674;45.552;-122.600;2023-03-11T09:31:31;6.10;31.30
1361;DHT22;674;45.552;-122.600;2023-03-11T09:34:00;6.00;32.10
1361;DHT22;674;45.552;-122.600;2023-03-11T09:36:29;6.20;41.70
1361;DHT22;674;45.552;-122.600;2023-03-11T09:38:59;6.10;51.10
1361;DHT22;674;45.552;-122.600;2023-03-11T09:49:44;6.30;30.00
1361;DHT22;674;45.552;-122.600;2023-03-11T09:52:18;6.10;35.10
1361;DHT22;674;45.552;-122.600;2023-03-11T09:54:53;6.20;30.20
1361;DHT22;674;45.552;-122.600;2023-03-11T09:57:31;6.20;39.60
1361;DHT22;674;45.552;-122.600;2023-03-11T10:00:03;6.10;26.40
1361;DHT22;674;45.552;-122.600;2023-03-11T10:02:35;6.20;23.50
1361;DHT22;674;45.552;-122.600;2023-03-11T10:05:19;6.20;24.50
1361;DHT22;674;45.552;-122.600;2023-03-11T10:08:18;5.70;25.20
1361;DHT22;674;45.552;-122.600;2023-03-11T10:10:50;5.90;30.40
1361;DHT22;674;45.552;-122.600;2023-03-11T10:13:34;5.90;25.00
1361;DHT22;674;45.552;-122.600;2023-03-11T10:19:07;5.60;25.70
1361;DHT22;674;45.552;-122.600;2023-03-11T10:21:56;5.90;24.50
1361;DHT22;674;45.552;-122.600;2023-03-11T10:24:56;5.60;29.30
1361;DHT22;674;45.552;-122.600;2023-03-11T10:27:34;5.50;27.70
1361;DHT22;674;45.552;-122.600;2023-03-11T10:33:06;5.60;26.90
1361;DHT22;674;45.552;-122.600;2023-03-11T10:35:39;5.40;30.00
1361;DHT22;674;45.552;-122.600;2023-03-11T10:38:23;5.30;37.20
1361;DHT22;674;45.552;-122.600;2023-03-11T10:40:57;5.50;45.00
1361;DHT22;674;45.552;-122.600;2023-03-11T10:43:43;5.10;53.20
1361;DHT22;674;45.552;-122.600;2023-03-11T10:46:23;5.10;68.60
1361;DHT22;674;45.552;-122.600;2023-03-11T10:48:52;5.10;75.60
1361;DHT22;674;45.552;-122.600;2023-03-11T10:51:32;4.90;78.30
1361;DHT22;674;45.552;-122.600;2023-03-11T10:54:02;5.00;81.30
1361;DHT22;674;45.552;-122.600;2023-03-11T10:56:39;5.10;88.00
1361;DHT22;674;45.552;-122.600;2023-03-11T11:01:58;5.20;93.50
1361;DHT22;674;45.552;-122.600;2023-03-11T11:12:56;5.20;93.20
1361;DHT22;674;45.552;-122.600;2023-03-11T11:15:31;5.30;94.30
1361;DHT22;674;45.552;-122.600;2023-03-11T11:20:31;5.30;92.50
1361;DHT22;674;45.552;-122.600;2023-03-11T11:23:02;5.30;94.30
1361;DHT22;674;45.552;-122.600;2023-03-11T11:25:32;5.40;94.60
1361;DHT22;674;45.552;-122.600;2023-03-11T11:28:14;5.30;93.50
1361;DHT22;674;45.552;-122.600;2023-03-11T11:31:19;5.30;93.30
1361;DHT22;674;45.552;-122.600;2023-03-11T11:33:51;5.60;92.90
1361;DHT22;674;45.552;-122.600;2023-03-11T11:36:24;5.60;89.80
1361;DHT22;674;45.552;-122.600;2023-03-11T11:38:55;5.90;90.40
1361;DHT22;674;45.552;-122.600;2023-03-11T11:41:26;5.50;87.10
1361;DHT22;674;45.552;-122.600;2023-03-11T11:44:04;5.50;90.60
1361;DHT22;674;45.552;-122.600;2023-03-11T11:47:18;5.60;90.40
1361;DHT22;674;45.552;-122.600;2023-03-11T11:49:55;5.40;92.60
1361;DHT22;674;45.552;-122.600;2023-03-11T11:52:29;5.30;93.80
1361;DHT22;674;45.552;-122.600;2023-03-11T11:55:06;5.30;94.20
1361;DHT22;674;45.552;-122.600;2023-03-11T11:57:36;5.90;95.90
1361;DHT22;674;45.552;-122.600;2023-03-11T12:00:17;5.60;94.20
1361;DHT22;674;45.552;-122.600;2023-03-11T12:03:29;5.80;93.30
1361;DHT22;674;45.552;-122.600;2023-03-11T12:17:22;5.80;87.90
1361;DHT22;674;45.552;-122.600;2023-03-11T12:20:17;5.90;80.40
1361;DHT22;674;45.552;-122.600;2023-03-11T12:28:21;5.90;90.00
1361;DHT22;674;45.552;-122.600;2023-03-11T12:31:00;5.90;90.50
1361;DHT22;674;45.552;-122.600;2023-03-11T12:33:36;5.70;84.60
1361;DHT22;674;45.552;-122.600;2023-03-11T12:36:06;5.60;83.40
1361;DHT22;674;45.552;-122.600;2023-03-11T12:38:39;5.60;88.50
1361;DHT22;674;45.552;-122.600;2023-03-11T12:46:15;5.10;90.10
1361;DHT22;674;45.552;-122.600;2023-03-11T12:48:57;5.20;90.70
1361;DHT22;674;45.552;-122.600;2023-03-11T12:54:28;4.60;99.90
1361;DHT22;674;45.552;-122.600;2023-03-11T12:59:41;4.60;99.40
1361;DHT22;674;45.552;-122.600;2023-03-11T13:08:13;4.60;99.90
1361;DHT22;674;45.552;-122.600;2023-03-11T13:10:45;4.60;99.90
1361;DHT22;674;45.552;-122.600;2023-03-11T13:18:49;4.80;99.90
1361;DHT22;674;45.552;-122.600;2023-03-11T13:40:44;4.40;99.90
1361;DHT22;674;45.552;-122.600;2023-03-11T13:43:23;4.20;99.90
1361;DHT22;674;45.552;-122.600;2023-03-11T13:46:12;4.10;99.90
1361;DHT22;674;45.552;-122.600;2023-03-11T13:48:44;4.30;99.90
1361;DHT22;674;45.552;-122.600;2023-03-11T13:51:15;4.30;99.90
1361;DHT22;674;45.552;-122.600;2023-03-11T13:53:58;3.90;99.90
1361;DHT22;674;45.552;-122.600;2023-03-11T13:56:38;3.90;99.90
1361;DHT22;674;45.552;-122.600;2023-03-11T14:04:34;4.10;99.90
1361;DHT22;674;45.552;-122.600;2023-03-11T14:07:33;4.00;99.90
1361;DHT22;674;45.552;-122.600;2023-03-11T14:12:43;4.10;99.90
1361;DHT22;674;45.552;-122.600;2023-03-11T14:15:23;4.20;99.90
1361;DHT22;674;45.552;-122.600;2023-03-11T14:18:23;4.10;99.90
1361;DHT22;674;45.552;-122.600;2023-03-11T14:20:52;4.30;99.90
1361;DHT22;674;45.552;-122.600;2023-03-11T14:23:26;4.10;99.90
1361;DHT22;674;45.552;-122.600;2023-03-11T14:26:07;4.40;99.90
1361;DHT22;674;45.552;-122.600;2023-03-11T14:28:38;4.40;99.90
1361;DHT22;674;45.552;-122.600;2023-03-11T14:31:32;4.40;99.90
1361;DHT22;674;45.552;-122.600;2023-03-11T14:39:34;4.60;99.90
1361;DHT22;674;45.552;-122.600;2023-03-11T14:44:40;4.60;99.90
1361;DHT22;674;45.552;-122.600;2023-03-11T14:50:00;4.90;99.90
1361;DHT22;674;45.552;-122.600;2023-03-11T14:52:43;4.70;99.90
1361;DHT22;674;45.552;-122.600;2023-03-11T14:55:16;4.60;99.90
1361;DHT22;674;45.552;-122.600;2023-03-11T14:57:54;4.60;99.90
1361;DHT22;674;45.552;-122.600;2023-03-11T15:00:50;4.70;99.90
1361;DHT22;674;45.552;-122.600;2023-03-11T15:03:28;4.90;99.90
1361;DHT22;674;45.552;-122.600;2023-03-11T15:06:25;5.20;99.90
1361;DHT22;674;45.552;-122.600;2023-03-11T15:08:59;4.70;99.90
1361;DHT22;674;45.552;-122.600;2023-03-11T15:11:28;4.70;99.90
1361;DHT22;674;45.552;-122.600;2023-03-11T15:16:46;4.80;99.90
1361;DHT22;674;45.552;-122.600;2023-03-11T15:19:41;4.70;99.90
1361;DHT22;674;45.552;-122.600;2023-03-11T15:24:58;4.90;99.90
1361;DHT22;674;45.552;-122.600;2023-03-11T15:27:32;4.80;99.90
1361;DHT22;674;45.552;-122.600;2023-03-11T15:30:25;4.80;99.90
1361;DHT22;674;45.552;-122.600;2023-03-11T15:32:52;4.70;99.90
1361;DHT22;674;45.552;-122.600;2023-03-11T15:35:28;4.60;99.90
1361;DHT22;674;45.552;-122.600;2023-03-11T15:38:20;4.90;99.90
1361;DHT22;674;45.552;-122.600;2023-03-11T15:40:56;4.70;99.90
1361;DHT22;674;45.552;-122.600;2023-03-11T15:43:28;4.90;99.90
1361;DHT22;674;45.552;-122.600;2023-03-11T15:45:59;5.00;99.90
1361;DHT22;674;45.552;-122.600;2023-03-11T15:48:29;5.00;99.90
1361;DHT22;674;45.552;-122.600;2023-03-11T15:50:59;5.00;99.80
1361;DHT22;674;45.552;-122.600;2023-03-11T15:53:29;5.30;99.90
1361;DHT22;674;45.552;-122.600;2023-03-11T15:56:01;5.60;99.90
1361;DHT22;674;45.552;-122.600;2023-03-11T15:58:35;5.30;99.90
1361;DHT22;674;45.552;-122.600;2023-03-11T16:01:05;5.30;99.90
1361;DHT22;674;45.552;-122.600;2023-03-11T16:03:34;5.60;99.60
1361;DHT22;674;45.552;-122.600;2023-03-11T16:06:03;5.50;99.90
1361;DHT22;674;45.552;-122.600;2023-03-11T16:08:32;5.60;98.20
1361;DHT22;674;45.552;-122.600;2023-03-11T16:11:01;5.30;99.10
1361;DHT22;674;45.552;-122.600;2023-03-11T16:13:29;5.70;99.90
1361;DHT22;674;45.552;-122.600;2023-03-11T16:15:58;6.30;94.10
1361;DHT22;674;45.552;-122.600;2023-03-11T16:18:30;6.30;56.40
1361;DHT22;674;45.552;-122.600;2023-03-11T16:21:00;6.60;51.00
1361;DHT22;674;45.552;-122.600;2023-03-11T16:23:33;7.20;34.80
1361;DHT22;674;45.552;-122.600;2023-03-11T16:26:18;7.90;1.00
1361;DHT22;674;45.552;-122.600;2023-03-11T16:28:46;8.70;1.00
1361;DHT22;674;45.552;-122.600;2023-03-11T16:31:15;9.30;1.00
1361;DHT22;674;45.552;-122.600;2023-03-11T16:33:44;9.60;1.00
1361;DHT22;674;45.552;-122.600;2023-03-11T16:36:12;9.80;1.00
1361;DHT22;674;45.552;-122.600;2023-03-11T16:38:48;9.80;1.00
1361;DHT22;674;45.552;-122.600;2023-03-11T16:41:17;9.90;1.00
1361;DHT22;674;45.552;-122.600;2023-03-11T16:43:46;9.70;1.00
1361;DHT22;674;45.552;-122.600;2023-03-11T16:46:14;9.70;1.00
1361;DHT22;674;45.552;-122.600;2023-03-11T16:48:42;9.70;1.00
1361;DHT22;674;45.552;-122.600;2023-03-11T16:51:11;9.80;1.00
1361;DHT22;674;45.552;-122.600;2023-03-11T16:53:39;9.80;1.00
1361;DHT22;674;45.552;-122.600;2023-03-11T16:56:08;9.70;1.00
1361;DHT22;674;45.552;-122.600;2023-03-11T16:58:36;9.70;1.00
1361;DHT22;674;45.552;-122.600;2023-03-11T17:01:05;9.50;1.00
1361;DHT22;674;45.552;-122.600;2023-03-11T17:03:33;8.80;1.00
1361;DHT22;674;45.552;-122.600;2023-03-11T17:06:09;9.00;1.00
1361;DHT22;674;45.552;-122.600;2023-03-11T17:08:37;9.30;1.00
1361;DHT22;674;45.552;-122.600;2023-03-11T17:11:20;8.80;1.00
1361;DHT22;674;45.552;-122.600;2023-03-11T17:13:51;9.10;1.00
1361;DHT22;674;45.552;-122.600;2023-03-11T17:16:26;8.10;1.00
1361;DHT22;674;45.552;-122.600;2023-03-11T17:18:55;8.00;1.00
1361;DHT22;674;45.552;-122.600;2023-03-11T17:21:23;7.80;1.00
1361;DHT22;674;45.552;-122.600;2023-03-11T17:23:52;8.20;1.00
1361;DHT22;674;45.552;-122.600;2023-03-11T17:26:21;8.40;1.00
1361;DHT22;674;45.552;-122.600;2023-03-11T17:28:49;8.40;1.00
1361;DHT22;674;45.552;-122.600;2023-03-11T17:31:18;8.20;1.00
1361;DHT22;674;45.552;-122.600;2023-03-11T17:33:47;8.50;1.00
1361;DHT22;674;45.552;-122.600;2023-03-11T17:36:16;8.30;1.00
1361;DHT22;674;45.552;-122.600;2023-03-11T17:38:46;8.10;1.00
1361;DHT22;674;45.552;-122.600;2023-03-11T17:41:16;8.00;1.00
1361;DHT22;674;45.552;-122.600;2023-03-11T17:43:44;7.90;1.00
1361;DHT22;674;45.552;-122.600;2023-03-11T17:46:16;7.60;1.00
1361;DHT22;674;45.552;-122.600;2023-03-11T17:48:47;7.90;1.00
1361;DHT22;674;45.552;-122.600;2023-03-11T17:51:21;7.80;2.10
1361;DHT22;674;45.552;-122.600;2023-03-11T17:53:53;8.30;7.20
1361;DHT22;674;45.552;-122.600;2023-03-11T17:56:22;8.90;5.10
1361;DHT22;674;45.552;-122.600;2023-03-11T17:58:51;9.40;1.00
1361;DHT22;674;45.552;-122.600;2023-03-11T18:01:22;9.70;1.00
1361;DHT22;674;45.552;-122.600;2023-03-11T18:03:51;10.00;1.00
1361;DHT22;674;45.552;-122.600;2023-03-11T18:06:20;9.60;1.00
1361;DHT22;674;45.552;-122.600;2023-03-11T18:08:49;10.00;1.00
1361;DHT22;674;45.552;-122.600;2023-03-11T18:11:21;10.60;1.00
1361;DHT22;674;45.552;-122.600;2023-03-11T18:13:50;11.40;1.00
1361;DHT22;674;45.552;-122.600;2023-03-11T18:16:23;11.80;1.00
1361;DHT22;674;45.552;-122.600;2023-03-11T18:18:53;11.50;1.00